Home > Products > Valid Products > TAF

000
FTUS42 KCHS 020500
TAFSAV
TAF
KSAV 020535Z 0206/0306 VRB03KT P6SM SCT300
      TEMPO 0209/0212 5SM BR
     FM021500 10007KT P6SM SCT050
     FM030000 12003KT P6SM FEW250=



000
FTUS42 KCHS 020500
TAFCHS
TAF
KCHS 020535Z 0206/0306 VRB03KT P6SM SCT300
      TEMPO 0210/0212 5SM BR
     FM021700 13007KT P6SM FEW045
     FM030000 15003KT P6SM FEW250=



000
FTUS42 KCHS 012300
TAFCHS
TAF
KCHS 012320Z 0200/0224 00000KT P6SM FEW250
      TEMPO 0210/0213 5SM BR
     FM021400 09007KT P6SM FEW045=



000
FTUS42 KCHS 012300
TAFSAV
TAF
KSAV 012320Z 0200/0224 00000KT P6SM FEW250
      TEMPO 0209/0213 5SM BR
     FM021500 10007KT P6SM SCT050=



000
FTUS42 KCHS 011700
TAFSAV
TAF
KSAV 011737Z 0118/0218 12005KT P6SM SCT040
     FM020100 00000KT P6SM FEW250
     FM021400 12005KT P6SM SCT040=



000
FTUS42 KCHS 011700
TAFCHS
TAF
KCHS 011737Z 0118/0218 12005KT P6SM SCT040
     FM020100 00000KT P6SM SKC
     FM021400 VRB03KT P6SM SCT040=



000
FTUS42 KCHS 011100
TAFSAV
TAF
KSAV 011135Z 0112/0212 04004KT P6SM FEW250
     FM011800 11006KT P6SM SCT080
     FM020100 00000KT P6SM SCT250=



000
FTUS42 KCHS 011100
TAFCHS
TAF
KCHS 011135Z 0112/0212 05005KT P6SM SCT250
     FM011900 12007KT P6SM FEW050 SCT250
     FM020100 00000KT P6SM SCT250=



000
FTUS42 KCHS 010900 AAA
TAFSAV
TAF AMD
KSAV 010940Z 0110/0206 00000KT P6SM SKC
      TEMPO 0110/0113 4SM BR
     FM011330 07005KT P6SM FEW040
     FM020100 00000KT P6SM FEW250=



000
FTUS42 KCHS 010500
TAFCHS
TAF
KCHS 010524Z 0106/0206 00000KT P6SM SKC
     FM011000 00000KT 5SM BR FEW250
     FM011330 07006KT P6SM FEW040
     FM020100 00000KT P6SM FEW250=



000
FTUS42 KCHS 010500
TAFSAV
TAF
KSAV 010524Z 0106/0206 00000KT P6SM SKC
     FM010900 00000KT 4SM BR FEW250
     FM011330 07005KT P6SM FEW040
     FM020100 00000KT P6SM FEW250=



000
FTUS42 KCHS 302300
TAFSAV
TAF
KSAV 302320Z 0100/0124 00000KT P6SM SKC
     FM010900 00000KT 4SM BR FEW250
     FM011330 05006KT P6SM SKC=



000
FTUS42 KCHS 302300
TAFCHS
TAF
KCHS 302320Z 0100/0124 00000KT P6SM SKC
     FM011000 00000KT 5SM BR FEW250
     FM011330 04006KT P6SM SKC=



000
FTUS42 KCHS 301700
TAFSAV
TAF
KSAV 301735Z 3018/0118 35007KT P6SM SCT025
     FM010000 00000KT P6SM SKC
     FM010800 00000KT 4SM BR FEW250
     FM011300 VRB03KT P6SM SKC=



000
FTUS42 KCHS 301700
TAFCHS
TAF
KCHS 301735Z 3018/0118 36008KT P6SM FEW040
     FM010000 00000KT P6SM SKC
     FM010900 00000KT 5SM BR FEW250
     FM011300 VRB03KT P6SM SKC=



000
FTUS42 KCHS 301500 AAA
TAFSAV
TAF AMD
KSAV 301508Z 3015/0112 35005KT P6SM OVC007
      TEMPO 3016/3017 SCT007 SCT025
     FM301700 04008KT P6SM SCT035
     FM010000 VRB03KT P6SM SKC
     FM010800 00000KT 4SM BR SCT003=



000
FTUS42 KCHS 301400 AAA
TAFCHS
TAF AMD
KCHS 301432Z 3015/0112 02008KT P6SM SKC
     FM301900 03007KT P6SM SCT040
     FM010000 VRB03KT P6SM SKC
     FM010900 00000KT 5SM BR SKC=



000
FTUS42 KCHS 301100
TAFCHS
TAF
KCHS 301125Z 3012/0112 02008KT P6SM BKN025
     FM301600 03007KT P6SM SCT035
     FM010000 VRB03KT P6SM SKC
     FM010900 00000KT 5SM BR SKC=



000
FTUS42 KCHS 301100
TAFSAV
TAF
KSAV 301125Z 3012/0112 01008KT P6SM OVC005
     FM301500 02009KT P6SM SCT012 BKN025
     FM301800 04008KT P6SM SCT035
     FM010000 VRB03KT P6SM SKC
     FM010800 00000KT 4SM BR SCT003=



000
FTUS42 KCHS 301100 AAB
TAFCHS
TAF AMD
KCHS 301108Z 3011/0106 02009KT P6SM BKN025
     FM301700 04010G15KT P6SM SCT025 BKN035 BKN080
     FM302100 05004KT P6SM SKC=



000
FTUS42 KCHS 300800 AAA
TAFCHS
TAF AMD
KCHS 300839Z 3009/0106 02007KT P6SM SCT004 OVC006
      TEMPO 3009/3013 BKN003
     FM301300 03009KT P6SM BKN015
     FM301700 04010G15KT P6SM SCT025 BKN035 BKN080
     FM302100 05004KT P6SM SKC=



000
FTUS42 KCHS 300500
TAFCHS
TAF
KCHS 300539Z 3006/0106 02007KT P6SM OVC006
      TEMPO 3006/3010 BKN015
     FM301300 03009KT P6SM BKN015
     FM301700 04010G15KT P6SM SCT025 BKN035 BKN080
     FM302100 05004KT P6SM SKC=



000
FTUS42 KCHS 300500
TAFSAV
TAF
KSAV 300539Z 3006/0106 01008KT P6SM OVC006
      TEMPO 3009/3013 OVC003
     FM301600 02009KT P6SM SCT008 BKN015
     FM301800 03010G15KT P6SM SCT025 BKN035 BKN080
     FM302200 05004KT P6SM SKC=



000
FTUS42 KCHS 300200 AAB
TAFCHS
TAF AMD
KCHS 300228Z 3002/3024 04007KT P6SM SCT007 OVC020
      TEMPO 3003/3007 3SM SHRADZ SCT004 OVC006
     FM300700 03007KT 4SM BR VCSH SCT003 OVC005
     FM301400 02010KT P6SM SCT008 OVC019
     FM301800 04010G15KT P6SM SCT025 BKN035 BKN080=



000
FTUS42 KCHS 300200 AAB
TAFSAV
TAF AMD
KSAV 300227Z 3002/3024 03008KT P6SM OVC006
      TEMPO 3003/3007 5SM -SHRADZ BR SCT006 OVC019
     FM300700 01006KT 4SM BR VCSH SCT003 OVC005
     FM301400 36007KT P6SM SCT009 OVC020
     FM301800 03010G15KT P6SM SCT025 BKN035 BKN080=



000
FTUS42 KCHS 300000 AAA
TAFCHS
TAF AMD
KCHS 300042Z 3001/3024 04008KT P6SM SCT007 OVC020
      TEMPO 3002/3006 4SM -SHRADZ SCT004 OVC006
     FM300600 03007KT 6SM BR VCSH SCT003 OVC005
     FM301400 02010KT P6SM SCT008 OVC019
     FM301800 04010G15KT P6SM SCT025 BKN035 BKN080=



000
FTUS42 KCHS 300000 AAA
TAFSAV
TAF AMD
KSAV 300038Z 3001/3024 03008KT P6SM OVC005
      TEMPO 3001/3005 5SM -SHRADZ SCT006 OVC020
     FM300500 01006KT 6SM BR VCSH SCT003 OVC005
     FM301400 36007KT P6SM SCT009 OVC020
     FM301800 03010G15KT P6SM SCT025 BKN035 BKN080=



000
FTUS42 KCHS 292300
TAFCHS
TAF
KCHS 292330Z 3000/3024 03007KT P6SM BKN007 OVC020
      TEMPO 3000/3004 4SM -RADZ SCT007 BKN020 OVC035
     FM300600 03007KT 6SM BR VCSH SCT003 OVC005
     FM301400 02010KT P6SM SCT008 OVC019
     FM301800 04010G15KT P6SM SCT025 BKN035 BKN080=



000
FTUS42 KCHS 292300
TAFSAV
TAF
KSAV 292330Z 3000/3024 03008KT P6SM SCT004 OVC006
      TEMPO 3000/3004 5SM -RADZ SCT006 OVC020
     FM300600 36006KT 6SM BR VCSH SCT003 OVC005
     FM301400 36007KT P6SM SCT009 OVC020
     FM301800 03010G15KT P6SM SCT025 BKN035 BKN080=



000
FTUS42 KCHS 292200 AAB
TAFCHS
TAF AMD
KCHS 292213Z 2922/3018 03007KT P6SM -RA BKN007 OVC035
      TEMPO 2922/3002 2SM -RADZ BR SCT004 OVC006
     FM300200 04007KT 6SM -RADZ BR SCT004 OVC006
     FM300600 02006KT P6SM VCSH SCT003 OVC005
     FM301500 01008KT P6SM SCT012 BKN025=



000
FTUS42 KCHS 292200 AAC
TAFSAV
TAF AMD
KSAV 292211Z 2922/3018 02008KT P6SM -RA BKN006 OVC035
      TEMPO 2922/3002 4SM -RADZ BR SCT004 OVC006
     FM300200 02008KT P6SM VCSH SCT004 OVC006
     FM300600 35005KT P6SM VCSH SCT003 OVC005
     FM301500 36007KT P6SM SCT015 BKN025=



000
FTUS42 KCHS 292000 AAB
TAFSAV
TAF AMD
KSAV 292022Z 2920/3018 02008KT 6SM -RA BR SCT007 OVC012
      TEMPO 2920/2924 1 1/2SM +RA BR SCT004 BKN006
     FM300200 02008KT P6SM SCT003 OVC006
     FM300600 35005KT P6SM OVC005
     FM301500 36007KT P6SM SCT015 BKN025=



000
FTUS42 KCHS 291900 AAA
TAFCHS
TAF AMD
KCHS 291943Z 2920/3018 04005KT 5SM -RA BR SCT008 BKN025
      TEMPO 2920/2923 P6SM NSW BKN008
     FM300200 04007KT P6SM SCT008 BKN012
     FM300600 36005KT P6SM BKN008
     FM301500 01008KT P6SM SCT012 BKN025=



000
FTUS42 KCHS 291800 AAA
TAFSAV
TAF AMD
KSAV 291857Z 2919/3018 02005KT 3SM RA BR OVC006
      TEMPO 2919/2922 1 1/2SM +RA BR SCT006 BKN012
     FM300300 02008KT P6SM SCT003 OVC006
     FM300600 35005KT P6SM OVC005
     FM301500 36007KT P6SM SCT015 BKN025=



000
FTUS42 KCHS 291700
TAFSAV
TAF
KSAV 291730Z 2918/3018 02005KT 4SM -RA BR OVC006
      TEMPO 2918/2922 2SM +RA BR
     FM300300 02008KT P6SM SCT003 OVC006
     FM300600 35005KT P6SM OVC005
     FM301500 36007KT P6SM SCT015 BKN025=



000
FTUS42 KCHS 291700
TAFCHS
TAF
KCHS 291730Z 2918/3018 04005KT 6SM -RA BR SCT008 BKN025
      TEMPO 2920/2923 3SM RA BR SCT008 BKN015
     FM300200 04007KT P6SM SCT008 BKN012
     FM300600 36005KT P6SM BKN008
     FM301500 01008KT P6SM SCT012 BKN025=



000
FTUS42 KCHS 291400 AAA
TAFCHS
TAF AMD
KCHS 291453Z 2915/3012 03005KT P6SM VCSH BKN007
     FM291700 04006KT 4SM -SHRA SCT008 OVC015
     FM300200 04007KT 6SM BR VCSH BKN008=



000
FTUS42 KCHS 291300 AAA
TAFSAV
TAF AMD
KSAV 291304Z 2913/3012 02005KT 4SM -DZ BR OVC006
      TEMPO 2913/2915 OVC003
     FM291600 02006KT 4SM -SHRA BR OVC006
     FM300200 02008KT 6SM BR VCSH SCT003 OVC006=



000
FTUS42 KCHS 291200 CCA
TAFCHS
TAF COR
KCHS 291213Z 2912/3012 03005KT 6SM -SHRA SCT005 OVC015
      TEMPO 2912/2916 2SM +SHRA BR BKN005
     FM291600 04006KT 4SM SHRA SCT008 OVC015
     FM300200 04007KT 6SM BR VCSH BKN008=



000
FTUS42 KCHS 291100 RRA
TAFCHS
TAF
KCHS 291140Z 2912/3012 03005KT 6SM -SHRA SCT008 OVC015
      TEMPO 2912/2916 2SM +SHRA BR
     FM291600 04006KT 4SM SHRA SCT008 OVC015
     FM300200 04007KT 6SM BR VCSH BKN008=



000
FTUS42 KCHS 291100 RRA
TAFSAV
TAF
KSAV 291140Z 2912/3012 02005KT P6SM VCSH OVC006
     FM291500 02006KT 4SM SHRA OVC006
     FM300200 02008KT 6SM BR VCSH SCT003 OVC006=



    US Dept of Commerce
    National Oceanic and Atmospheric Administration
    National Weather Service
    1325 East West Highway
    Silver Spring, MD 20910
    Page Author: NWS Internet Services Team
Disclaimer
Information Quality
Credits
Glossary
Privacy Policy
Freedom of Information Act (FOIA)
About Us
Career Opportunities